sensor_id;sensor_type;location;lat;lon;timestamp;temperature;humidity
3921;DHT22;1975;49.356;6.816;2022-10-10T00:01:49;13.00;99.90
3921;DHT22;1975;49.356;6.816;2022-10-10T00:04:14;13.00;99.90
3921;DHT22;1975;49.356;6.816;2022-10-10T00:06:40;13.00;99.90
3921;DHT22;1975;49.356;6.816;2022-10-10T00:09:05;13.00;99.90
3921;DHT22;1975;49.356;6.816;2022-10-10T00:11:31;13.00;99.90
3921;DHT22;1975;49.356;6.816;2022-10-10T00:13:56;13.00;99.90
3921;DHT22;1975;49.356;6.816;2022-10-10T00:16:22;12.90;99.90
3921;DHT22;1975;49.356;6.816;2022-10-10T00:18:47;12.90;99.90
3921;DHT22;1975;49.356;6.816;2022-10-10T00:21:13;12.90;99.90
3921;DHT22;1975;49.356;6.816;2022-10-10T00:23:38;12.90;99.90
3921;DHT22;1975;49.356;6.816;2022-10-10T00:26:04;12.90;99.90
3921;DHT22;1975;49.356;6.816;2022-10-10T00:28:30;12.90;99.90
3921;DHT22;1975;49.356;6.816;2022-10-10T00:30:55;12.90;99.90
3921;DHT22;1975;49.356;6.816;2022-10-10T00:33:21;12.90;99.90
3921;DHT22;1975;49.356;6.816;2022-10-10T00:35:46;12.90;99.90
3921;DHT22;1975;49.356;6.816;2022-10-10T00:38:12;12.90;99.90
3921;DHT22;1975;49.356;6.816;2022-10-10T00:40:46;12.90;99.90
3921;DHT22;1975;49.356;6.816;2022-10-10T00:43:12;12.80;99.90
3921;DHT22;1975;49.356;6.816;2022-10-10T00:45:38;12.90;99.90
3921;DHT22;1975;49.356;6.816;2022-10-10T00:48:05;12.80;99.90
3921;DHT22;1975;49.356;6.816;2022-10-10T00:50:32;12.80;99.90
3921;DHT22;1975;49.356;6.816;2022-10-10T00:52:59;12.80;99.90
3921;DHT22;1975;49.356;6.816;2022-10-10T00:55:24;12.80;99.90
3921;DHT22;1975;49.356;6.816;2022-10-10T00:57:50;12.80;99.90
3921;DHT22;1975;49.356;6.816;2022-10-10T01:00:16;12.80;99.90
3921;DHT22;1975;49.356;6.816;2022-10-10T01:02:41;12.80;99.90
3921;DHT22;1975;49.356;6.816;2022-10-10T01:05:07;12.70;99.90
3921;DHT22;1975;49.356;6.816;2022-10-10T01:07:33;12.70;99.90
3921;DHT22;1975;49.356;6.816;2022-10-10T01:10:04;12.70;99.90
3921;DHT22;1975;49.356;6.816;2022-10-10T01:12:37;12.70;99.90
3921;DHT22;1975;49.356;6.816;2022-10-10T01:23:11;12.70;99.90
3921;DHT22;1975;49.356;6.816;2022-10-10T01:30:43;12.60;99.90
3921;DHT22;1975;49.356;6.816;2022-10-10T01:33:12;12.60;99.90
3921;DHT22;1975;49.356;6.816;2022-10-10T01:38:40;12.60;99.90
3921;DHT22;1975;49.356;6.816;2022-10-10T01:41:14;12.60;99.90
3921;DHT22;1975;49.356;6.816;2022-10-10T01:43:41;12.60;99.90
3921;DHT22;1975;49.356;6.816;2022-10-10T01:46:07;12.60;99.90
3921;DHT22;1975;49.356;6.816;2022-10-10T01:48:33;12.60;99.90
3921;DHT22;1975;49.356;6.816;2022-10-10T01:53:34;12.60;99.90
3921;DHT22;1975;49.356;6.816;2022-10-10T02:01:32;12.50;99.90
3921;DHT22;1975;49.356;6.816;2022-10-10T02:04:10;12.50;99.90
3921;DHT22;1975;49.356;6.816;2022-10-10T02:06:38;12.50;99.90
3921;DHT22;1975;49.356;6.816;2022-10-10T02:09:06;12.50;99.90
3921;DHT22;1975;49.356;6.816;2022-10-10T02:11:34;12.50;99.90
3921;DHT22;1975;49.356;6.816;2022-10-10T02:14:04;12.50;99.90
3921;DHT22;1975;49.356;6.816;2022-10-10T02:16:32;12.50;99.90
3921;DHT22;1975;49.356;6.816;2022-10-10T02:18:58;12.40;99.90
3921;DHT22;1975;49.356;6.816;2022-10-10T02:21:24;12.40;99.90
3921;DHT22;1975;49.356;6.816;2022-10-10T02:23:51;12.40;99.90
3921;DHT22;1975;49.356;6.816;2022-10-10T02:26:18;12.40;99.90
3921;DHT22;1975;49.356;6.816;2022-10-10T02:28:50;12.40;99.90
3921;DHT22;1975;49.356;6.816;2022-10-10T02:31:19;12.40;99.90
3921;DHT22;1975;49.356;6.816;2022-10-10T02:33:48;12.40;99.90
3921;DHT22;1975;49.356;6.816;2022-10-10T02:36:15;12.40;99.90
3921;DHT22;1975;49.356;6.816;2022-10-10T02:38:42;12.40;99.90
3921;DHT22;1975;49.356;6.816;2022-10-10T02:41:08;12.40;99.90
3921;DHT22;1975;49.356;6.816;2022-10-10T02:43:34;12.30;99.90
3921;DHT22;1975;49.356;6.816;2022-10-10T02:46:00;12.30;99.90
3921;DHT22;1975;49.356;6.816;2022-10-10T02:48:26;12.30;99.90
3921;DHT22;1975;49.356;6.816;2022-10-10T02:50:51;12.30;99.90
3921;DHT22;1975;49.356;6.816;2022-10-10T02:53:17;12.30;99.90
3921;DHT22;1975;49.356;6.816;2022-10-10T02:55:42;12.30;99.90
3921;DHT22;1975;49.356;6.816;2022-10-10T02:58:08;12.30;99.90
3921;DHT22;1975;49.356;6.816;2022-10-10T03:00:34;12.30;99.90
3921;DHT22;1975;49.356;6.816;2022-10-10T03:02:59;12.30;99.90
3921;DHT22;1975;49.356;6.816;2022-10-10T03:05:25;12.30;99.90
3921;DHT22;1975;49.356;6.816;2022-10-10T03:07:50;12.30;99.90
3921;DHT22;1975;49.356;6.816;2022-10-10T03:10:15;12.20;99.90
3921;DHT22;1975;49.356;6.816;2022-10-10T03:12:41;12.30;99.90
3921;DHT22;1975;49.356;6.816;2022-10-10T03:15:06;12.20;99.90
3921;DHT22;1975;49.356;6.816;2022-10-10T03:17:32;12.20;99.90
3921;DHT22;1975;49.356;6.816;2022-10-10T03:19:57;12.20;99.90
3921;DHT22;1975;49.356;6.816;2022-10-10T03:22:23;12.20;99.90
3921;DHT22;1975;49.356;6.816;2022-10-10T03:24:48;12.20;99.90
3921;DHT22;1975;49.356;6.816;2022-10-10T03:27:14;12.20;99.90
3921;DHT22;1975;49.356;6.816;2022-10-10T03:29:39;12.20;99.90
3921;DHT22;1975;49.356;6.816;2022-10-10T03:32:05;12.20;99.90
3921;DHT22;1975;49.356;6.816;2022-10-10T03:34:30;12.20;99.90
3921;DHT22;1975;49.356;6.816;2022-10-10T03:36:55;12.20;99.90
3921;DHT22;1975;49.356;6.816;2022-10-10T03:39:21;12.20;99.90
3921;DHT22;1975;49.356;6.816;2022-10-10T03:41:46;12.20;99.90
3921;DHT22;1975;49.356;6.816;2022-10-10T03:44:14;12.10;99.90
3921;DHT22;1975;49.356;6.816;2022-10-10T03:46:39;12.10;99.90
3921;DHT22;1975;49.356;6.816;2022-10-10T03:49:05;12.10;99.90
3921;DHT22;1975;49.356;6.816;2022-10-10T03:51:30;12.10;99.90
3921;DHT22;1975;49.356;6.816;2022-10-10T03:53:56;12.10;99.90
3921;DHT22;1975;49.356;6.816;2022-10-10T03:56:21;12.10;99.90
3921;DHT22;1975;49.356;6.816;2022-10-10T03:58:47;12.10;99.90
3921;DHT22;1975;49.356;6.816;2022-10-10T04:01:12;12.10;99.90
3921;DHT22;1975;49.356;6.816;2022-10-10T04:03:38;12.10;99.90
3921;DHT22;1975;49.356;6.816;2022-10-10T04:06:04;12.10;99.90
3921;DHT22;1975;49.356;6.816;2022-10-10T04:08:30;12.00;99.90
3921;DHT22;1975;49.356;6.816;2022-10-10T04:10:56;12.00;99.90
3921;DHT22;1975;49.356;6.816;2022-10-10T04:13:21;12.00;99.90
3921;DHT22;1975;49.356;6.816;2022-10-10T04:15:50;12.00;99.90
3921;DHT22;1975;49.356;6.816;2022-10-10T04:18:16;12.00;99.90
3921;DHT22;1975;49.356;6.816;2022-10-10T04:20:41;12.00;99.90
3921;DHT22;1975;49.356;6.816;2022-10-10T04:23:07;12.00;99.90
3921;DHT22;1975;49.356;6.816;2022-10-10T04:25:32;12.00;99.90
3921;DHT22;1975;49.356;6.816;2022-10-10T04:27:58;12.00;99.90
3921;DHT22;1975;49.356;6.816;2022-10-10T04:30:23;11.90;99.90
3921;DHT22;1975;49.356;6.816;2022-10-10T04:32:49;11.90;99.90
3921;DHT22;1975;49.356;6.816;2022-10-10T04:35:14;11.90;99.90
3921;DHT22;1975;49.356;6.816;2022-10-10T04:37:40;11.90;99.90
3921;DHT22;1975;49.356;6.816;2022-10-10T04:40:05;11.90;99.90
3921;DHT22;1975;49.356;6.816;2022-10-10T04:42:31;11.90;99.90
3921;DHT22;1975;49.356;6.816;2022-10-10T04:44:56;11.90;99.90
3921;DHT22;1975;49.356;6.816;2022-10-10T04:47:22;11.90;99.90
3921;DHT22;1975;49.356;6.816;2022-10-10T04:49:47;11.90;99.90
3921;DHT22;1975;49.356;6.816;2022-10-10T04:52:13;11.90;99.90
3921;DHT22;1975;49.356;6.816;2022-10-10T04:54:38;11.90;99.90
3921;DHT22;1975;49.356;6.816;2022-10-10T04:57:04;11.80;99.90
3921;DHT22;1975;49.356;6.816;2022-10-10T04:59:30;11.90;99.90
3921;DHT22;1975;49.356;6.816;2022-10-10T05:01:55;11.90;99.90
3921;DHT22;1975;49.356;6.816;2022-10-10T05:04:21;11.90;99.90
3921;DHT22;1975;49.356;6.816;2022-10-10T05:06:46;11.80;99.90
3921;DHT22;1975;49.356;6.816;2022-10-10T05:09:11;11.80;99.90
3921;DHT22;1975;49.356;6.816;2022-10-10T05:11:37;11.80;99.90
3921;DHT22;1975;49.356;6.816;2022-10-10T05:14:02;11.80;99.90
3921;DHT22;1975;49.356;6.816;2022-10-10T05:16:28;11.80;99.90
3921;DHT22;1975;49.356;6.816;2022-10-10T05:18:53;11.80;99.90
3921;DHT22;1975;49.356;6.816;2022-10-10T05:21:21;11.80;99.90
3921;DHT22;1975;49.356;6.816;2022-10-10T05:23:46;11.80;99.90
3921;DHT22;1975;49.356;6.816;2022-10-10T05:26:12;11.70;99.90
3921;DHT22;1975;49.356;6.816;2022-10-10T05:28:38;11.70;99.90
3921;DHT22;1975;49.356;6.816;2022-10-10T05:31:04;11.70;99.90
3921;DHT22;1975;49.356;6.816;2022-10-10T05:33:30;11.70;99.90
3921;DHT22;1975;49.356;6.816;2022-10-10T05:36:02;11.70;99.90
3921;DHT22;1975;49.356;6.816;2022-10-10T05:38:29;11.70;99.90
3921;DHT22;1975;49.356;6.816;2022-10-10T05:40:54;11.70;99.90
3921;DHT22;1975;49.356;6.816;2022-10-10T05:43:20;11.70;99.90
3921;DHT22;1975;49.356;6.816;2022-10-10T05:45:46;11.70;99.90
3921;DHT22;1975;49.356;6.816;2022-10-10T05:48:11;11.60;99.90
3921;DHT22;1975;49.356;6.816;2022-10-10T05:50:37;11.70;99.90
3921;DHT22;1975;49.356;6.816;2022-10-10T05:53:03;11.60;99.90
3921;DHT22;1975;49.356;6.816;2022-10-10T05:55:31;11.70;99.90
3921;DHT22;1975;49.356;6.816;2022-10-10T05:57:56;11.60;99.90
3921;DHT22;1975;49.356;6.816;2022-10-10T06:00:22;11.60;99.90
3921;DHT22;1975;49.356;6.816;2022-10-10T06:02:47;11.60;99.90
3921;DHT22;1975;49.356;6.816;2022-10-10T06:05:13;11.60;99.90
3921;DHT22;1975;49.356;6.816;2022-10-10T06:07:38;11.60;99.90
3921;DHT22;1975;49.356;6.816;2022-10-10T06:10:04;11.60;99.90
3921;DHT22;1975;49.356;6.816;2022-10-10T06:12:29;11.60;99.90
3921;DHT22;1975;49.356;6.816;2022-10-10T06:14:55;11.60;99.90
3921;DHT22;1975;49.356;6.816;2022-10-10T06:17:20;11.60;99.90
3921;DHT22;1975;49.356;6.816;2022-10-10T06:19:46;11.60;99.90
3921;DHT22;1975;49.356;6.816;2022-10-10T06:22:11;11.60;99.90
3921;DHT22;1975;49.356;6.816;2022-10-10T06:24:37;11.60;99.90
3921;DHT22;1975;49.356;6.816;2022-10-10T06:27:02;11.60;99.90
3921;DHT22;1975;49.356;6.816;2022-10-10T06:29:28;11.60;99.90
3921;DHT22;1975;49.356;6.816;2022-10-10T06:31:53;11.50;99.90
3921;DHT22;1975;49.356;6.816;2022-10-10T06:34:19;11.60;99.90
3921;DHT22;1975;49.356;6.816;2022-10-10T06:36:44;11.50;99.90
3921;DHT22;1975;49.356;6.816;2022-10-10T06:39:10;11.50;99.90
3921;DHT22;1975;49.356;6.816;2022-10-10T06:41:35;11.50;99.90
3921;DHT22;1975;49.356;6.816;2022-10-10T06:44:01;11.50;99.90
3921;DHT22;1975;49.356;6.816;2022-10-10T06:46:26;11.50;99.90
3921;DHT22;1975;49.356;6.816;2022-10-10T06:48:52;11.50;99.90
3921;DHT22;1975;49.356;6.816;2022-10-10T06:51:17;11.50;99.90
3921;DHT22;1975;49.356;6.816;2022-10-10T06:53:43;11.50;99.90
3921;DHT22;1975;49.356;6.816;2022-10-10T06:56:09;11.50;99.90
3921;DHT22;1975;49.356;6.816;2022-10-10T06:58:35;11.50;99.90
3921;DHT22;1975;49.356;6.816;2022-10-10T07:01:01;11.50;99.90
3921;DHT22;1975;49.356;6.816;2022-10-10T07:03:28;11.50;99.90
3921;DHT22;1975;49.356;6.816;2022-10-10T07:05:57;11.50;99.90
3921;DHT22;1975;49.356;6.816;2022-10-10T07:08:23;11.50;99.90
3921;DHT22;1975;49.356;6.816;2022-10-10T07:10:49;11.50;99.90
3921;DHT22;1975;49.356;6.816;2022-10-10T07:13:15;11.50;99.90
3921;DHT22;1975;49.356;6.816;2022-10-10T07:15:41;11.50;99.90
3921;DHT22;1975;49.356;6.816;2022-10-10T07:18:07;11.50;99.90
3921;DHT22;1975;49.356;6.816;2022-10-10T07:20:33;11.50;99.90
3921;DHT22;1975;49.356;6.816;2022-10-10T07:22:58;11.50;99.90
3921;DHT22;1975;49.356;6.816;2022-10-10T07:25:24;11.50;99.90
3921;DHT22;1975;49.356;6.816;2022-10-10T07:27:49;11.50;99.90
3921;DHT22;1975;49.356;6.816;2022-10-10T07:30:15;11.50;99.90
3921;DHT22;1975;49.356;6.816;2022-10-10T07:32:40;11.50;99.90
3921;DHT22;1975;49.356;6.816;2022-10-10T07:35:07;11.50;99.90
3921;DHT22;1975;49.356;6.816;2022-10-10T07:37:33;11.50;99.90
3921;DHT22;1975;49.356;6.816;2022-10-10T07:39:58;11.50;99.90
3921;DHT22;1975;49.356;6.816;2022-10-10T07:42:24;11.50;99.90
3921;DHT22;1975;49.356;6.816;2022-10-10T07:44:49;11.50;99.90
3921;DHT22;1975;49.356;6.816;2022-10-10T07:47:15;11.50;99.90
3921;DHT22;1975;49.356;6.816;2022-10-10T07:49:40;11.50;99.90
3921;DHT22;1975;49.356;6.816;2022-10-10T07:52:05;11.60;99.90
3921;DHT22;1975;49.356;6.816;2022-10-10T07:54:31;11.60;99.90
3921;DHT22;1975;49.356;6.816;2022-10-10T07:56:57;11.60;99.90
3921;DHT22;1975;49.356;6.816;2022-10-10T07:59:22;11.50;99.90
3921;DHT22;1975;49.356;6.816;2022-10-10T08:01:48;11.60;99.90
3921;DHT22;1975;49.356;6.816;2022-10-10T08:04:14;11.60;99.90
3921;DHT22;1975;49.356;6.816;2022-10-10T08:06:39;11.60;99.90
3921;DHT22;1975;49.356;6.816;2022-10-10T08:09:05;11.60;99.90
3921;DHT22;1975;49.356;6.816;2022-10-10T08:11:30;11.60;99.90
3921;DHT22;1975;49.356;6.816;2022-10-10T08:13:56;11.60;99.90
3921;DHT22;1975;49.356;6.816;2022-10-10T08:16:21;11.60;99.90
3921;DHT22;1975;49.356;6.816;2022-10-10T08:18:47;11.60;99.90
3921;DHT22;1975;49.356;6.816;2022-10-10T08:21:13;11.60;99.90
3921;DHT22;1975;49.356;6.816;2022-10-10T08:23:39;11.60;99.90
3921;DHT22;1975;49.356;6.816;2022-10-10T08:26:05;11.60;99.90
3921;DHT22;1975;49.356;6.816;2022-10-10T08:28:31;11.60;99.90
3921;DHT22;1975;49.356;6.816;2022-10-10T08:30:57;11.60;99.90
3921;DHT22;1975;49.356;6.816;2022-10-10T08:33:26;11.60;99.90
3921;DHT22;1975;49.356;6.816;2022-10-10T08:35:52;11.60;99.90
3921;DHT22;1975;49.356;6.816;2022-10-10T08:38:17;11.60;99.90
3921;DHT22;1975;49.356;6.816;2022-10-10T08:40:47;11.60;99.90
3921;DHT22;1975;49.356;6.816;2022-10-10T08:43:32;11.70;99.90
3921;DHT22;1975;49.356;6.816;2022-10-10T08:46:03;11.70;99.90
3921;DHT22;1975;49.356;6.816;2022-10-10T08:48:30;11.70;99.90
3921;DHT22;1975;49.356;6.816;2022-10-10T08:50:58;11.70;99.90
3921;DHT22;1975;49.356;6.816;2022-10-10T08:53:27;11.70;99.90
3921;DHT22;1975;49.356;6.816;2022-10-10T08:55:56;11.70;99.90
3921;DHT22;1975;49.356;6.816;2022-10-10T08:58:37;11.70;99.90
3921;DHT22;1975;49.356;6.816;2022-10-10T09:01:07;11.70;99.90
3921;DHT22;1975;49.356;6.816;2022-10-10T09:06:11;11.70;99.90
3921;DHT22;1975;49.356;6.816;2022-10-10T09:13:59;11.80;99.90
3921;DHT22;1975;49.356;6.816;2022-10-10T09:19:46;11.80;99.90
3921;DHT22;1975;49.356;6.816;2022-10-10T09:22:04;11.80;99.90
3921;DHT22;1975;49.356;6.816;2022-10-10T09:25:13;11.80;99.90
3921;DHT22;1975;49.356;6.816;2022-10-10T09:27:31;11.80;99.90
3921;DHT22;1975;49.356;6.816;2022-10-10T09:30:00;11.80;99.90
3921;DHT22;1975;49.356;6.816;2022-10-10T09:32:36;11.80;99.90
3921;DHT22;1975;49.356;6.816;2022-10-10T09:35:23;11.80;99.90
3921;DHT22;1975;49.356;6.816;2022-10-10T09:37:50;11.80;99.90
3921;DHT22;1975;49.356;6.816;2022-10-10T09:42:46;11.90;99.90
3921;DHT22;1975;49.356;6.816;2022-10-10T09:45:33;11.90;99.90
3921;DHT22;1975;49.356;6.816;2022-10-10T09:47:57;11.90;99.90
3921;DHT22;1975;49.356;6.816;2022-10-10T09:50:23;11.90;99.90
3921;DHT22;1975;49.356;6.816;2022-10-10T09:52:49;11.90;99.90
3921;DHT22;1975;49.356;6.816;2022-10-10T09:55:34;11.90;99.90
3921;DHT22;1975;49.356;6.816;2022-10-10T09:58:02;11.90;99.90
3921;DHT22;1975;49.356;6.816;2022-10-10T10:00:33;11.90;99.90
3921;DHT22;1975;49.356;6.816;2022-10-10T10:05:33;12.00;99.90
3921;DHT22;1975;49.356;6.816;2022-10-10T10:07:59;12.00;99.90
3921;DHT22;1975;49.356;6.816;2022-10-10T10:10:25;12.00;99.90
3921;DHT22;1975;49.356;6.816;2022-10-10T10:12:51;12.00;99.90
3921;DHT22;1975;49.356;6.816;2022-10-10T10:15:21;12.00;99.90
3921;DHT22;1975;49.356;6.816;2022-10-10T10:20:33;12.00;99.90
3921;DHT22;1975;49.356;6.816;2022-10-10T10:23:00;12.00;99.90
3921;DHT22;1975;49.356;6.816;2022-10-10T10:25:36;12.00;99.90
3921;DHT22;1975;49.356;6.816;2022-10-10T10:28:20;12.10;99.90
3921;DHT22;1975;49.356;6.816;2022-10-10T10:30:45;12.10;99.90
3921;DHT22;1975;49.356;6.816;2022-10-10T10:33:13;12.10;99.90
3921;DHT22;1975;49.356;6.816;2022-10-10T10:35:43;12.10;99.90
3921;DHT22;1975;49.356;6.816;2022-10-10T10:41:01;12.10;99.90
3921;DHT22;1975;49.356;6.816;2022-10-10T10:48:46;12.10;99.90
3921;DHT22;1975;49.356;6.816;2022-10-10T10:53:58;12.10;99.90
3921;DHT22;1975;49.356;6.816;2022-10-10T10:57:12;12.10;99.90
3921;DHT22;1975;49.356;6.816;2022-10-10T11:07:05;12.20;99.90
3921;DHT22;1975;49.356;6.816;2022-10-10T11:09:35;12.20;99.90
3921;DHT22;1975;49.356;6.816;2022-10-10T11:17:16;12.20;99.90
3921;DHT22;1975;49.356;6.816;2022-10-10T11:19:46;12.20;99.90
3921;DHT22;1975;49.356;6.816;2022-10-10T11:22:21;12.20;99.90
3921;DHT22;1975;49.356;6.816;2022-10-10T11:24:49;12.20;99.90
3921;DHT22;1975;49.356;6.816;2022-10-10T11:27:21;12.20;99.90
3921;DHT22;1975;49.356;6.816;2022-10-10T11:30:12;12.30;99.90
3921;DHT22;1975;49.356;6.816;2022-10-10T11:35:29;12.30;99.90
3921;DHT22;1975;49.356;6.816;2022-10-10T11:38:07;12.30;99.90
3921;DHT22;1975;49.356;6.816;2022-10-10T11:40:59;12.30;99.90
3921;DHT22;1975;49.356;6.816;2022-10-10T11:43:23;12.30;99.90
3921;DHT22;1975;49.356;6.816;2022-10-10T11:45:54;12.30;99.90
3921;DHT22;1975;49.356;6.816;2022-10-10T11:48:26;12.30;99.90
3921;DHT22;1975;49.356;6.816;2022-10-10T11:50:56;12.30;99.90
3921;DHT22;1975;49.356;6.816;2022-10-10T11:53:37;12.30;99.90
3921;DHT22;1975;49.356;6.816;2022-10-10T11:56:09;12.30;99.90
3921;DHT22;1975;49.356;6.816;2022-10-10T11:58:41;12.40;99.90
3921;DHT22;1975;49.356;6.816;2022-10-10T12:01:11;12.40;99.90
3921;DHT22;1975;49.356;6.816;2022-10-10T12:03:38;12.40;99.90
3921;DHT22;1975;49.356;6.816;2022-10-10T12:06:07;12.40;99.90
3921;DHT22;1975;49.356;6.816;2022-10-10T12:08:38;12.40;99.90
3921;DHT22;1975;49.356;6.816;2022-10-10T12:11:21;12.40;99.90
3921;DHT22;1975;49.356;6.816;2022-10-10T12:13:57;12.40;99.90
3921;DHT22;1975;49.356;6.816;2022-10-10T12:16:24;12.40;99.90
3921;DHT22;1975;49.356;6.816;2022-10-10T12:18:51;12.40;99.90
3921;DHT22;1975;49.356;6.816;2022-10-10T12:21:18;12.50;99.90
3921;DHT22;1975;49.356;6.816;2022-10-10T12:23:48;12.50;99.90
3921;DHT22;1975;49.356;6.816;2022-10-10T12:26:18;12.50;99.90
3921;DHT22;1975;49.356;6.816;2022-10-10T12:31:32;12.50;99.90
3921;DHT22;1975;49.356;6.816;2022-10-10T12:33:59;12.50;99.90
3921;DHT22;1975;49.356;6.816;2022-10-10T12:44:19;12.60;99.90
3921;DHT22;1975;49.356;6.816;2022-10-10T12:46:45;12.60;99.90
3921;DHT22;1975;49.356;6.816;2022-10-10T12:49:18;12.60;99.90
3921;DHT22;1975;49.356;6.816;2022-10-10T12:51:44;12.60;99.90
3921;DHT22;1975;49.356;6.816;2022-10-10T12:54:20;12.70;99.90
3921;DHT22;1975;49.356;6.816;2022-10-10T12:56:48;12.70;99.90
3921;DHT22;1975;49.356;6.816;2022-10-10T12:59:21;12.70;99.90
3921;DHT22;1975;49.356;6.816;2022-10-10T13:01:55;12.70;99.90
3921;DHT22;1975;49.356;6.816;2022-10-10T13:04:21;12.70;99.90
3921;DHT22;1975;49.356;6.816;2022-10-10T13:06:48;12.70;99.90
3921;DHT22;1975;49.356;6.816;2022-10-10T13:09:19;12.80;99.90
3921;DHT22;1975;49.356;6.816;2022-10-10T13:11:56;12.80;99.90
3921;DHT22;1975;49.356;6.816;2022-10-10T13:14:22;12.80;99.90
3921;DHT22;1975;49.356;6.816;2022-10-10T13:16:48;12.80;99.90
3921;DHT22;1975;49.356;6.816;2022-10-10T13:19:20;12.80;99.90
3921;DHT22;1975;49.356;6.816;2022-10-10T13:21:46;12.80;99.90
3921;DHT22;1975;49.356;6.816;2022-10-10T13:24:14;12.80;99.90
3921;DHT22;1975;49.356;6.816;2022-10-10T13:26:44;12.90;99.90
3921;DHT22;1975;49.356;6.816;2022-10-10T13:31:45;12.90;99.90
3921;DHT22;1975;49.356;6.816;2022-10-10T13:34:11;12.90;99.90
3921;DHT22;1975;49.356;6.816;2022-10-10T13:36:39;12.90;99.90
3921;DHT22;1975;49.356;6.816;2022-10-10T13:39:05;13.00;99.90
3921;DHT22;1975;49.356;6.816;2022-10-10T13:41:31;13.00;99.90
3921;DHT22;1975;49.356;6.816;2022-10-10T13:43:57;13.00;99.90
3921;DHT22;1975;49.356;6.816;2022-10-10T13:46:28;13.00;99.90
3921;DHT22;1975;49.356;6.816;2022-10-10T13:48:53;13.00;99.90
3921;DHT22;1975;49.356;6.816;2022-10-10T13:51:19;13.10;99.90
3921;DHT22;1975;49.356;6.816;2022-10-10T13:53:49;13.10;99.90
3921;DHT22;1975;49.356;6.816;2022-10-10T13:56:24;13.10;99.90
3921;DHT22;1975;49.356;6.816;2022-10-10T14:03:45;13.10;99.90
3921;DHT22;1975;49.356;6.816;2022-10-10T14:06:16;13.20;99.90
3921;DHT22;1975;49.356;6.816;2022-10-10T14:08:41;13.20;99.90
3921;DHT22;1975;49.356;6.816;2022-10-10T14:11:07;13.20;99.90
3921;DHT22;1975;49.356;6.816;2022-10-10T14:13:33;13.20;99.90
3921;DHT22;1975;49.356;6.816;2022-10-10T14:16:09;13.20;99.90
3921;DHT22;1975;49.356;6.816;2022-10-10T14:18:35;13.20;99.90
3921;DHT22;1975;49.356;6.816;2022-10-10T14:21:00;13.30;99.90
3921;DHT22;1975;49.356;6.816;2022-10-10T14:23:26;13.30;99.90
3921;DHT22;1975;49.356;6.816;2022-10-10T14:25:51;13.30;99.90
3921;DHT22;1975;49.356;6.816;2022-10-10T14:28:18;13.30;99.90
3921;DHT22;1975;49.356;6.816;2022-10-10T14:30:44;13.30;99.90
3921;DHT22;1975;49.356;6.816;2022-10-10T14:33:10;13.40;99.90
3921;DHT22;1975;49.356;6.816;2022-10-10T14:35:36;13.40;99.90
3921;DHT22;1975;49.356;6.816;2022-10-10T14:38:02;13.40;99.90
3921;DHT22;1975;49.356;6.816;2022-10-10T14:40:27;13.40;99.90
3921;DHT22;1975;49.356;6.816;2022-10-10T14:42:54;13.40;99.90
3921;DHT22;1975;49.356;6.816;2022-10-10T14:45:20;13.40;99.90
3921;DHT22;1975;49.356;6.816;2022-10-10T14:47:45;13.40;99.90
3921;DHT22;1975;49.356;6.816;2022-10-10T14:50:15;13.50;99.90
3921;DHT22;1975;49.356;6.816;2022-10-10T14:52:41;13.50;99.90
3921;DHT22;1975;49.356;6.816;2022-10-10T14:55:07;13.50;99.90
3921;DHT22;1975;49.356;6.816;2022-10-10T14:57:33;13.50;99.90
3921;DHT22;1975;49.356;6.816;2022-10-10T14:59:58;13.60;99.90
3921;DHT22;1975;49.356;6.816;2022-10-10T15:02:23;13.60;99.90
3921;DHT22;1975;49.356;6.816;2022-10-10T15:04:50;13.60;99.90
3921;DHT22;1975;49.356;6.816;2022-10-10T15:07:16;13.60;99.90
3921;DHT22;1975;49.356;6.816;2022-10-10T15:09:42;13.60;99.90
3921;DHT22;1975;49.356;6.816;2022-10-10T15:12:08;13.70;99.90
3921;DHT22;1975;49.356;6.816;2022-10-10T15:14:33;13.70;99.90
3921;DHT22;1975;49.356;6.816;2022-10-10T15:16:59;13.70;99.90
3921;DHT22;1975;49.356;6.816;2022-10-10T15:19:24;13.70;99.90
3921;DHT22;1975;49.356;6.816;2022-10-10T15:21:50;13.70;99.90
3921;DHT22;1975;49.356;6.816;2022-10-10T15:24:15;13.80;99.90
3921;DHT22;1975;49.356;6.816;2022-10-10T15:26:40;13.80;99.90
3921;DHT22;1975;49.356;6.816;2022-10-10T15:29:06;13.80;99.90
3921;DHT22;1975;49.356;6.816;2022-10-10T15:31:31;13.80;99.90
3921;DHT22;1975;49.356;6.816;2022-10-10T15:33:57;13.80;99.90
3921;DHT22;1975;49.356;6.816;2022-10-10T15:36:23;13.80;99.90
3921;DHT22;1975;49.356;6.816;2022-10-10T15:38:49;13.90;99.90
3921;DHT22;1975;49.356;6.816;2022-10-10T15:41:15;13.90;99.90
3921;DHT22;1975;49.356;6.816;2022-10-10T15:43:48;13.90;99.90
3921;DHT22;1975;49.356;6.816;2022-10-10T15:46:19;13.90;99.90
3921;DHT22;1975;49.356;6.816;2022-10-10T15:48:44;13.90;99.90
3921;DHT22;1975;49.356;6.816;2022-10-10T15:51:10;13.90;99.90
3921;DHT22;1975;49.356;6.816;2022-10-10T15:53:35;13.90;99.90
3921;DHT22;1975;49.356;6.816;2022-10-10T15:56:04;13.90;99.90
3921;DHT22;1975;49.356;6.816;2022-10-10T15:58:30;13.90;99.90
3921;DHT22;1975;49.356;6.816;2022-10-10T16:00:56;13.90;99.90
3921;DHT22;1975;49.356;6.816;2022-10-10T16:03:21;14.00;99.90
3921;DHT22;1975;49.356;6.816;2022-10-10T16:05:47;14.00;99.90
3921;DHT22;1975;49.356;6.816;2022-10-10T16:08:12;14.00;99.90
3921;DHT22;1975;49.356;6.816;2022-10-10T16:10:38;14.00;99.90
3921;DHT22;1975;49.356;6.816;2022-10-10T16:13:04;14.00;99.90
3921;DHT22;1975;49.356;6.816;2022-10-10T16:15:30;14.00;99.90
3921;DHT22;1975;49.356;6.816;2022-10-10T16:17:55;14.00;99.90
3921;DHT22;1975;49.356;6.816;2022-10-10T16:20:21;14.00;99.90
3921;DHT22;1975;49.356;6.816;2022-10-10T16:22:46;14.00;99.90
3921;DHT22;1975;49.356;6.816;2022-10-10T16:25:12;14.10;99.90
3921;DHT22;1975;49.356;6.816;2022-10-10T16:27:37;14.10;99.90
3921;DHT22;1975;49.356;6.816;2022-10-10T16:30:03;14.10;99.90
3921;DHT22;1975;49.356;6.816;2022-10-10T16:32:29;14.10;99.90
3921;DHT22;1975;49.356;6.816;2022-10-10T16:34:55;14.10;99.90
3921;DHT22;1975;49.356;6.816;2022-10-10T16:37:20;14.10;99.90
3921;DHT22;1975;49.356;6.816;2022-10-10T16:39:46;14.10;99.90
3921;DHT22;1975;49.356;6.816;2022-10-10T16:42:11;14.10;99.90
3921;DHT22;1975;49.356;6.816;2022-10-10T16:44:37;14.20;99.90
3921;DHT22;1975;49.356;6.816;2022-10-10T16:47:02;14.20;99.90
3921;DHT22;1975;49.356;6.816;2022-10-10T16:49:28;14.20;99.90
3921;DHT22;1975;49.356;6.816;2022-10-10T16:51:53;14.20;99.90
3921;DHT22;1975;49.356;6.816;2022-10-10T16:54:19;14.20;99.90
3921;DHT22;1975;49.356;6.816;2022-10-10T16:56:44;14.20;99.90
3921;DHT22;1975;49.356;6.816;2022-10-10T16:59:10;14.20;99.90
3921;DHT22;1975;49.356;6.816;2022-10-10T17:01:35;14.20;99.90
3921;DHT22;1975;49.356;6.816;2022-10-10T17:04:01;14.20;99.90
3921;DHT22;1975;49.356;6.816;2022-10-10T17:06:27;14.20;99.90
3921;DHT22;1975;49.356;6.816;2022-10-10T17:08:55;14.20;99.90
3921;DHT22;1975;49.356;6.816;2022-10-10T17:11:21;14.30;99.90
3921;DHT22;1975;49.356;6.816;2022-10-10T17:13:47;14.40;99.90
3921;DHT22;1975;49.356;6.816;2022-10-10T17:16:13;14.60;99.90
3921;DHT22;1975;49.356;6.816;2022-10-10T17:18:41;14.70;99.90
3921;DHT22;1975;49.356;6.816;2022-10-10T17:21:08;14.80;99.90
3921;DHT22;1975;49.356;6.816;2022-10-10T17:23:33;14.80;99.90
3921;DHT22;1975;49.356;6.816;2022-10-10T17:25:59;14.80;99.90
3921;DHT22;1975;49.356;6.816;2022-10-10T17:28:24;14.80;99.90
3921;DHT22;1975;49.356;6.816;2022-10-10T17:30:50;14.70;99.90